createdAt,value
2019-03-28T00:00:08.816Z,70.159912
2019-03-28T00:00:20.892Z,70.056152
2019-03-28T00:00:32.994Z,69.848633
2019-03-28T00:00:45.062Z,69.647217
2019-03-28T00:00:57.107Z,69.439697
2019-03-28T00:01:09.165Z,69.848633
2019-03-28T00:01:21.276Z,70.159912
2019-03-28T00:01:33.371Z,70.159912
2019-03-28T00:01:45.493Z,70.08667
2019-03-28T00:01:57.542Z,70.19043
2019-03-28T00:02:09.636Z,70.08667
2019-03-28T00:02:21.770Z,70.19043
2019-03-28T00:02:33.821Z,70.495605
2019-03-28T00:02:45.913Z,70.703125
2019-03-28T00:02:57.949Z,70.806885
2019-03-28T00:03:10.009Z,70.703125
2019-03-28T00:03:22.176Z,70.294189
2019-03-28T00:03:34.256Z,70.294189
2019-03-28T00:03:47.299Z,70.08667
2019-03-28T00:03:59.407Z,69.885254
2019-03-28T00:04:11.504Z,69.885254
2019-03-28T00:04:23.584Z,69.98291
2019-03-28T00:04:36.677Z,70.19043
2019-03-28T00:04:48.778Z,69.98291
2019-03-28T00:05:00.895Z,70.08667
2019-03-28T00:05:12.962Z,70.397949
2019-03-28T00:05:26.987Z,70.703125
2019-03-28T00:05:39.077Z,70.806885
2019-03-28T00:05:51.206Z,70.397949
2019-03-28T00:06:04.281Z,70.495605
2019-03-28T00:06:16.404Z,70.397949
2019-03-28T00:06:28.521Z,70.599365
2019-03-28T00:06:41.644Z,70.599365
2019-03-28T00:06:53.704Z,70.495605
2019-03-28T00:07:05.797Z,70.19043
2019-03-28T00:07:17.879Z,69.885254
2019-03-28T00:07:31.936Z,69.781494
2019-03-28T00:07:44.039Z,70.19043
2019-03-28T00:07:56.094Z,70.397949
2019-03-28T00:08:08.202Z,70.294189
2019-03-28T00:08:22.318Z,70.19043
2019-03-28T00:08:34.387Z,70.397949
2019-03-28T00:08:47.427Z,70.599365
2019-03-28T00:08:59.502Z,70.703125
2019-03-28T00:09:13.548Z,70.599365
2019-03-28T00:09:25.668Z,70.495605
2019-03-28T00:09:37.734Z,70.495605
2019-03-28T00:09:50.797Z,70.910645
2019-03-28T00:10:02.991Z,71.112061
2019-03-28T00:10:14.956Z,70.910645
2019-03-28T00:10:27.035Z,70.703125
2019-03-28T00:10:39.089Z,70.599365
2019-03-28T00:10:51.172Z,70.397949
2019-03-28T00:11:03.257Z,70.703125
2019-03-28T00:11:15.340Z,71.21582
2019-03-28T00:11:27.457Z,71.112061
2019-03-28T00:11:39.570Z,70.806885
2019-03-28T00:11:51.726Z,70.599365
2019-03-28T00:12:03.781Z,70.397949
2019-03-28T00:12:15.823Z,70.495605
2019-03-28T00:12:27.891Z,70.703125
2019-03-28T00:12:40.164Z,70.599365
2019-03-28T00:12:52.065Z,70.599365
2019-03-28T00:13:04.113Z,70.910645
2019-03-28T00:13:16.176Z,71.008301
2019-03-28T00:13:28.275Z,71.008301
2019-03-28T00:13:40.331Z,70.910645
2019-03-28T00:13:55.157Z,70.910645
2019-03-28T00:14:06.454Z,71.008301
2019-03-28T00:14:19.233Z,71.112061
2019-03-28T00:14:30.626Z,71.31958
2019-03-28T00:14:43.135Z,71.557617
2019-03-28T00:14:54.837Z,71.453857
2019-03-28T00:15:06.908Z,71.246338
2019-03-28T00:15:19.003Z,71.148682
2019-03-28T00:15:31.125Z,71.350098
2019-03-28T00:15:44.225Z,71.557617
2019-03-28T00:15:56.297Z,71.557617
2019-03-28T00:16:08.414Z,71.453857
2019-03-28T00:16:20.510Z,71.246338
2019-03-28T00:16:32.579Z,71.148682
2019-03-28T00:16:44.665Z,71.246338
2019-03-28T00:16:56.772Z,71.453857
2019-03-28T00:17:08.842Z,71.661377
2019-03-28T00:17:21.898Z,71.557617
2019-03-28T00:17:34.939Z,71.350098
2019-03-28T00:17:46.997Z,71.148682
2019-03-28T00:17:59.053Z,71.044922
2019-03-28T00:18:11.110Z,71.044922
2019-03-28T00:18:23.223Z,71.044922
2019-03-28T00:18:35.283Z,71.246338
2019-03-28T00:18:47.345Z,71.350098
2019-03-28T00:19:00.390Z,71.148682
2019-03-28T00:19:12.499Z,71.557617
2019-03-28T00:19:24.571Z,71.862793
2019-03-28T00:19:36.639Z,71.862793
2019-03-28T00:19:48.708Z,71.862793
2019-03-28T00:20:00.772Z,72.070312
2019-03-28T00:20:16.288Z,72.070312
2019-03-28T00:20:26.943Z,71.862793
2019-03-28T00:20:38.989Z,71.862793
2019-03-28T00:20:51.070Z,71.759033
2019-03-28T00:21:03.122Z,71.862793
2019-03-28T00:21:15.178Z,71.966553
2019-03-28T00:21:27.273Z,71.966553
2019-03-28T00:21:39.417Z,72.174072
2019-03-28T00:21:51.865Z,72.375488
2019-03-28T00:22:05.737Z,72.271729
2019-03-28T00:22:17.598Z,71.966553
2019-03-28T00:22:29.679Z,71.966553
2019-03-28T00:22:42.078Z,71.966553
2019-03-28T00:22:53.820Z,72.070312
2019-03-28T00:23:07.251Z,71.966553
2019-03-28T00:23:18.948Z,72.070312
2019-03-28T00:23:31.064Z,72.174072
2019-03-28T00:23:43.114Z,72.174072
2019-03-28T00:23:55.194Z,71.862793
2019-03-28T00:24:08.577Z,71.661377
2019-03-28T00:24:20.678Z,71.661377
2019-03-28T00:24:32.780Z,71.661377
2019-03-28T00:24:44.901Z,71.862793
2019-03-28T00:24:57.935Z,71.966553
2019-03-28T00:25:10.043Z,71.759033
2019-03-28T00:25:22.086Z,71.453857
2019-03-28T00:25:34.178Z,71.453857
2019-03-28T00:25:48.292Z,71.350098
2019-03-28T00:26:01.360Z,71.453857
2019-03-28T00:26:13.443Z,71.661377
2019-03-28T00:26:32.446Z,72.070312
2019-03-28T00:26:44.503Z,72.174072
2019-03-28T00:26:56.595Z,72.174072
2019-03-28T00:27:09.640Z,71.862793
2019-03-28T00:27:21.743Z,71.557617
2019-03-28T00:27:33.782Z,71.966553
2019-03-28T00:27:46.239Z,72.375488
2019-03-28T00:27:57.932Z,72.070312
2019-03-28T00:28:10.033Z,72.070312
2019-03-28T00:28:22.124Z,72.375488
2019-03-28T00:28:34.175Z,72.479248
2019-03-28T00:28:47.225Z,72.375488
2019-03-28T00:28:59.291Z,72.375488
2019-03-28T00:29:12.366Z,72.174072
2019-03-28T00:29:25.447Z,71.759033
2019-03-28T00:29:37.500Z,71.966553
2019-03-28T00:29:49.588Z,72.070312
2019-03-28T00:30:02.668Z,71.862793
2019-03-28T00:30:15.770Z,71.759033
2019-03-28T00:30:27.839Z,71.759033
2019-03-28T00:30:39.920Z,71.862793
2019-03-28T00:30:51.989Z,71.862793
2019-03-28T00:31:04.085Z,71.759033
2019-03-28T00:31:16.161Z,71.759033
2019-03-28T00:31:28.197Z,71.557617
2019-03-28T00:31:40.297Z,71.350098
2019-03-28T00:31:54.349Z,71.557617
2019-03-28T00:32:06.398Z,71.862793
2019-03-28T00:32:18.455Z,72.070312
2019-03-28T00:32:30.576Z,72.375488
2019-03-28T00:32:42.709Z,72.583008
2019-03-28T00:32:55.802Z,72.680664
2019-03-28T00:33:08.845Z,72.479248
2019-03-28T00:33:20.932Z,72.271729
2019-03-28T00:33:34.000Z,72.070312
2019-03-28T00:33:46.072Z,72.070312
2019-03-28T00:33:58.161Z,72.174072
2019-03-28T00:34:10.394Z,72.174072
2019-03-28T00:34:22.362Z,72.070312
2019-03-28T00:34:35.169Z,71.862793
2019-03-28T00:34:46.526Z,71.759033
2019-03-28T00:34:58.622Z,71.862793
2019-03-28T00:35:10.732Z,72.070312
2019-03-28T00:35:22.788Z,71.862793
2019-03-28T00:35:34.859Z,72.070312
2019-03-28T00:35:46.943Z,72.479248
2019-03-28T00:36:00.021Z,72.375488
2019-03-28T00:36:12.121Z,72.271729
2019-03-28T00:36:24.166Z,71.966553
2019-03-28T00:36:36.246Z,71.862793
2019-03-28T00:36:48.307Z,71.661377
2019-03-28T00:37:01.352Z,71.759033
2019-03-28T00:37:15.414Z,71.862793
2019-03-28T00:37:27.470Z,72.070312
2019-03-28T00:37:39.515Z,72.070312
2019-03-28T00:37:51.566Z,71.862793
2019-03-28T00:38:03.654Z,71.661377
2019-03-28T00:38:15.733Z,71.661377
2019-03-28T00:38:27.853Z,71.759033
2019-03-28T00:38:40.918Z,71.759033
2019-03-28T00:38:53.066Z,71.862793
2019-03-28T00:39:05.158Z,71.862793
2019-03-28T00:39:17.214Z,71.862793
2019-03-28T00:39:29.370Z,71.759033
2019-03-28T00:39:41.439Z,71.661377
2019-03-28T00:39:53.493Z,71.661377
2019-03-28T00:40:05.548Z,71.966553
2019-03-28T00:40:18.628Z,72.070312
2019-03-28T00:40:30.724Z,72.174072
2019-03-28T00:40:43.756Z,72.174072
2019-03-28T00:40:55.844Z,72.070312
2019-03-28T00:41:07.942Z,72.174072
2019-03-28T00:41:21.061Z,72.174072
2019-03-28T00:41:33.106Z,72.070312
2019-03-28T00:41:45.311Z,72.070312
2019-03-28T00:41:57.203Z,72.174072
2019-03-28T00:42:09.315Z,72.271729
2019-03-28T00:42:21.435Z,72.479248
2019-03-28T00:42:33.499Z,72.479248
2019-03-28T00:42:46.412Z,72.271729
2019-03-28T00:42:58.476Z,72.174072
2019-03-28T00:43:10.551Z,72.271729
2019-03-28T00:43:22.628Z,72.375488
2019-03-28T00:43:34.751Z,72.479248
2019-03-28T00:43:47.842Z,72.412109
2019-03-28T00:43:59.922Z,72.375488
2019-03-28T00:44:11.992Z,72.509766
2019-03-28T00:44:24.045Z,72.680664
2019-03-28T00:44:36.122Z,72.717285
2019-03-28T00:44:48.233Z,72.583008
2019-03-28T00:45:00.347Z,72.613525
2019-03-28T00:45:12.394Z,72.509766
2019-03-28T00:45:24.488Z,72.412109
2019-03-28T00:45:36.571Z,72.30835
2019-03-28T00:45:49.633Z,72.30835
2019-03-28T00:46:01.690Z,72.30835
2019-03-28T00:46:14.737Z,72.20459
2019-03-28T00:46:26.827Z,72.10083
2019-03-28T00:46:38.913Z,72.10083
2019-03-28T00:46:50.980Z,71.899414
2019-03-28T00:47:03.060Z,71.795654
2019-03-28T00:47:15.163Z,71.691895
2019-03-28T00:47:27.226Z,71.691895
2019-03-28T00:47:41.292Z,72.30835
2019-03-28T00:47:53.349Z,72.821045
2019-03-28T00:48:06.402Z,73.022461
2019-03-28T00:48:18.461Z,73.022461
2019-03-28T00:48:30.731Z,73.022461
2019-03-28T00:48:42.816Z,72.821045
2019-03-28T00:48:54.894Z,72.924805
2019-03-28T00:49:07.008Z,73.022461
2019-03-28T00:49:19.131Z,73.022461
2019-03-28T00:49:33.213Z,72.821045
2019-03-28T00:49:46.286Z,72.509766
2019-03-28T00:49:58.397Z,72.509766
2019-03-28T00:50:10.436Z,72.509766
2019-03-28T00:50:22.529Z,72.509766
2019-03-28T00:50:37.598Z,72.509766
2019-03-28T00:50:49.658Z,72.412109
2019-03-28T00:51:01.740Z,72.412109
2019-03-28T00:51:13.851Z,72.509766
2019-03-28T00:51:25.972Z,72.613525
2019-03-28T00:51:39.019Z,72.412109
2019-03-28T00:51:53.074Z,72.30835
2019-03-28T00:52:05.152Z,72.412109
2019-03-28T00:52:17.225Z,72.613525
2019-03-28T00:52:30.299Z,72.821045
2019-03-28T00:52:42.388Z,72.613525
2019-03-28T00:52:54.552Z,72.509766
2019-03-28T00:53:06.619Z,72.412109
2019-03-28T00:53:18.688Z,72.30835
2019-03-28T00:53:31.180Z,72.20459
2019-03-28T00:53:42.909Z,72.30835
2019-03-28T00:53:54.987Z,72.30835
2019-03-28T00:54:07.063Z,72.30835
2019-03-28T00:54:19.161Z,72.613525
2019-03-28T00:54:31.233Z,72.717285
2019-03-28T00:54:43.288Z,72.509766
2019-03-28T00:54:55.359Z,72.30835
2019-03-28T00:55:08.391Z,72.20459
2019-03-28T00:55:20.510Z,72.30835
2019-03-28T00:55:32.605Z,72.412109
2019-03-28T00:55:44.644Z,72.509766
2019-03-28T00:55:56.722Z,72.924805
2019-03-28T00:56:08.871Z,72.924805
2019-03-28T00:56:21.929Z,72.717285
2019-03-28T00:56:45.190Z,72.412109
2019-03-28T00:56:55.053Z,72.613525
2019-03-28T00:57:07.127Z,72.613525
2019-03-28T00:57:19.277Z,72.613525
2019-03-28T00:57:31.329Z,72.613525
2019-03-28T00:57:44.075Z,72.717285
2019-03-28T00:57:56.451Z,72.924805
2019-03-28T00:58:09.067Z,72.717285
2019-03-28T00:58:21.574Z,72.509766
2019-03-28T00:58:34.167Z,72.412109
2019-03-28T00:58:45.723Z,72.30835
2019-03-28T00:58:57.834Z,72.10083
2019-03-28T00:59:09.915Z,72.10083
2019-03-28T00:59:21.980Z,72.30835
2019-03-28T00:59:34.115Z,72.412109
2019-03-28T00:59:46.189Z,72.412109
2019-03-28T00:59:58.265Z,72.412109
2019-03-28T01:00:10.343Z,72.412109
2019-03-28T01:00:23.431Z,72.412109
2019-03-28T01:00:35.614Z,72.509766
2019-03-28T01:00:47.678Z,72.821045
2019-03-28T01:00:59.779Z,73.126221
2019-03-28T01:01:11.870Z,73.022461
2019-03-28T01:01:23.996Z,72.717285
2019-03-28T01:01:36.166Z,72.509766
2019-03-28T01:01:48.267Z,72.613525
2019-03-28T01:02:00.353Z,72.509766
2019-03-28T01:02:12.430Z,72.613525
2019-03-28T01:02:24.500Z,72.509766
2019-03-28T01:02:36.540Z,72.613525
2019-03-28T01:02:48.591Z,72.717285
2019-03-28T01:03:00.707Z,72.717285
2019-03-28T01:03:12.831Z,72.924805
2019-03-28T01:03:24.893Z,72.821045
2019-03-28T01:03:37.037Z,72.821045
2019-03-28T01:03:49.110Z,72.509766
2019-03-28T01:04:01.166Z,72.613525
2019-03-28T01:04:13.324Z,72.613525
2019-03-28T01:04:25.440Z,72.717285
2019-03-28T01:04:37.494Z,72.717285
2019-03-28T01:04:50.527Z,72.821045
2019-03-28T01:05:02.714Z,72.821045
2019-03-28T01:05:14.858Z,72.717285
2019-03-28T01:05:26.941Z,72.924805
2019-03-28T01:05:39.074Z,73.022461
2019-03-28T01:05:51.170Z,73.022461
2019-03-28T01:06:03.254Z,73.022461
2019-03-28T01:06:15.358Z,73.126221
2019-03-28T01:06:27.432Z,73.126221
2019-03-28T01:06:39.469Z,73.126221
2019-03-28T01:06:51.561Z,73.126221
2019-03-28T01:07:03.648Z,73.22998
2019-03-28T01:07:15.754Z,73.022461
2019-03-28T01:07:27.844Z,72.717285
2019-03-28T01:07:39.974Z,72.613525
2019-03-28T01:07:52.054Z,72.717285
2019-03-28T01:08:04.115Z,72.821045
2019-03-28T01:08:16.225Z,73.126221
2019-03-28T01:08:28.310Z,73.022461
2019-03-28T01:08:40.389Z,72.717285
2019-03-28T01:08:52.460Z,72.509766
2019-03-28T01:09:06.504Z,72.717285
2019-03-28T01:09:18.666Z,73.022461
2019-03-28T01:09:31.311Z,73.22998
2019-03-28T01:09:42.749Z,73.22998
2019-03-28T01:09:54.816Z,73.126221
2019-03-28T01:10:06.894Z,73.126221
2019-03-28T01:10:18.971Z,73.126221
2019-03-28T01:10:31.051Z,73.022461
2019-03-28T01:10:43.157Z,73.126221
2019-03-28T01:10:56.212Z,73.022461
2019-03-28T01:11:08.269Z,73.022461
2019-03-28T01:11:20.427Z,73.022461
2019-03-28T01:11:32.556Z,73.022461
2019-03-28T01:11:44.645Z,73.022461
2019-03-28T01:11:57.742Z,72.924805
2019-03-28T01:12:09.815Z,73.022461
2019-03-28T01:12:21.846Z,73.126221
2019-03-28T01:12:33.987Z,73.22998
2019-03-28T01:12:46.144Z,73.22998
2019-03-28T01:12:58.227Z,73.33374
2019-03-28T01:13:11.270Z,73.22998
2019-03-28T01:13:23.383Z,73.126221
2019-03-28T01:13:35.512Z,72.924805
2019-03-28T01:13:47.591Z,72.717285
2019-03-28T01:13:59.652Z,72.613525
2019-03-28T01:14:11.744Z,72.509766
2019-03-28T01:14:23.862Z,72.613525
2019-03-28T01:14:35.943Z,72.613525
2019-03-28T01:14:48.021Z,72.613525
2019-03-28T01:15:00.130Z,72.717285
2019-03-28T01:15:12.143Z,72.924805
2019-03-28T01:15:24.233Z,73.22998
2019-03-28T01:15:37.304Z,73.4375
2019-03-28T01:15:49.537Z,73.535156
2019-03-28T01:16:01.520Z,73.638916
2019-03-28T01:16:13.759Z,73.535156
2019-03-28T01:16:25.728Z,73.4375
2019-03-28T01:16:39.389Z,73.22998
2019-03-28T01:16:50.878Z,73.126221
2019-03-28T01:17:02.960Z,73.126221
2019-03-28T01:17:15.075Z,73.126221
2019-03-28T01:17:27.175Z,73.126221
2019-03-28T01:17:39.322Z,73.126221
2019-03-28T01:17:51.420Z,73.022461
2019-03-28T01:18:03.495Z,72.924805
2019-03-28T01:18:15.569Z,73.022461
2019-03-28T01:18:27.623Z,73.126221
2019-03-28T01:18:39.728Z,73.126221
2019-03-28T01:18:51.821Z,73.022461
2019-03-28T01:19:04.881Z,73.126221
2019-03-28T01:19:17.930Z,73.638916
2019-03-28T01:19:30.104Z,73.638916
2019-03-28T01:19:42.164Z,73.4375
2019-03-28T01:19:54.273Z,73.33374
2019-03-28T01:20:06.356Z,73.535156
2019-03-28T01:20:18.447Z,73.4375
2019-03-28T01:20:30.493Z,73.4375
2019-03-28T01:20:42.636Z,73.846436
2019-03-28T01:20:54.672Z,73.950195
2019-03-28T01:21:06.743Z,73.742676
2019-03-28T01:21:18.939Z,73.638916
2019-03-28T01:21:31.027Z,73.535156
2019-03-28T01:21:43.109Z,73.4375
2019-03-28T01:21:55.217Z,73.4375
2019-03-28T01:22:07.284Z,73.22998
2019-03-28T01:22:19.387Z,73.022461
2019-03-28T01:22:31.460Z,73.022461
2019-03-28T01:22:43.579Z,73.33374
2019-03-28T01:22:56.204Z,73.33374
2019-03-28T01:23:07.761Z,73.126221
2019-03-28T01:23:19.862Z,72.924805
2019-03-28T01:23:31.933Z,72.924805
2019-03-28T01:23:44.006Z,72.924805
2019-03-28T01:23:56.111Z,73.22998
2019-03-28T01:24:09.198Z,73.535156
2019-03-28T01:24:21.291Z,73.638916
2019-03-28T01:24:33.389Z,73.638916
2019-03-28T01:24:45.461Z,73.638916
2019-03-28T01:24:58.539Z,73.638916
2019-03-28T01:25:11.605Z,73.638916
2019-03-28T01:25:23.664Z,73.33374
2019-03-28T01:25:35.747Z,73.33374
2019-03-28T01:25:47.820Z,73.535156
2019-03-28T01:25:59.913Z,73.742676
2019-03-28T01:26:11.964Z,73.846436
2019-03-28T01:26:25.020Z,73.846436
2019-03-28T01:26:37.112Z,73.846436
2019-03-28T01:26:57.365Z,74.047852
2019-03-28T01:27:09.230Z,74.151611
2019-03-28T01:27:21.298Z,74.047852
2019-03-28T01:27:33.368Z,74.047852
2019-03-28T01:27:45.435Z,73.950195
2019-03-28T01:27:57.534Z,73.742676
2019-03-28T01:28:10.609Z,73.535156
2019-03-28T01:28:22.670Z,73.638916
2019-03-28T01:28:34.797Z,73.638916
2019-03-28T01:28:46.851Z,73.535156
2019-03-28T01:28:58.919Z,73.4375
2019-03-28T01:29:12.035Z,73.33374
2019-03-28T01:29:24.094Z,73.126221
2019-03-28T01:29:37.208Z,73.126221
2019-03-28T01:29:49.307Z,73.126221
2019-03-28T01:30:01.384Z,73.22998
2019-03-28T01:30:13.497Z,73.33374
2019-03-28T01:30:25.620Z,73.33374
2019-03-28T01:30:37.747Z,73.4375
2019-03-28T01:30:50.904Z,73.535156
2019-03-28T01:31:02.971Z,73.535156
2019-03-28T01:31:15.105Z,73.535156
2019-03-28T01:31:27.170Z,73.535156
2019-03-28T01:31:39.259Z,73.535156
2019-03-28T01:31:51.348Z,73.4375
2019-03-28T01:32:03.470Z,73.535156
2019-03-28T01:32:15.594Z,73.742676
2019-03-28T01:32:28.225Z,73.846436
2019-03-28T01:32:39.743Z,73.846436
2019-03-28T01:32:51.871Z,73.742676
2019-03-28T01:33:03.938Z,73.638916
2019-03-28T01:33:16.007Z,73.742676
2019-03-28T01:33:28.098Z,73.846436
2019-03-28T01:33:40.184Z,73.950195
2019-03-28T01:33:52.272Z,73.950195
2019-03-28T01:34:05.324Z,73.950195
2019-03-28T01:34:17.452Z,73.950195
2019-03-28T01:34:29.513Z,74.047852
2019-03-28T01:34:41.565Z,74.047852
2019-03-28T01:34:53.672Z,74.047852
2019-03-28T01:35:05.733Z,74.151611
2019-03-28T01:35:18.821Z,74.359131
2019-03-28T01:35:30.886Z,74.359131
2019-03-28T01:35:43.983Z,74.255371
2019-03-28T01:35:56.011Z,74.255371
2019-03-28T01:36:09.085Z,74.255371
2019-03-28T01:36:21.164Z,74.151611
2019-03-28T01:36:33.252Z,74.151611
2019-03-28T01:36:45.338Z,74.047852
2019-03-28T01:36:57.419Z,74.047852
2019-03-28T01:37:10.557Z,74.047852
2019-03-28T01:37:22.622Z,73.846436
2019-03-28T01:37:34.736Z,73.846436
2019-03-28T01:37:46.836Z,73.535156
2019-03-28T01:37:58.936Z,73.535156
2019-03-28T01:38:11.027Z,73.638916
2019-03-28T01:38:23.138Z,73.950195
2019-03-28T01:38:35.294Z,74.047852
2019-03-28T01:38:47.355Z,74.047852
2019-03-28T01:38:59.413Z,74.255371
2019-03-28T01:39:11.517Z,74.047852
2019-03-28T01:39:23.665Z,73.742676
2019-03-28T01:39:36.770Z,73.535156
2019-03-28T01:39:49.826Z,73.22998
2019-03-28T01:40:01.940Z,73.22998
2019-03-28T01:40:14.993Z,73.33374
2019-03-28T01:40:27.059Z,73.33374
2019-03-28T01:40:39.118Z,73.33374
2019-03-28T01:40:51.332Z,73.535156
2019-03-28T01:41:03.289Z,73.535156
2019-03-28T01:41:15.372Z,73.33374
2019-03-28T01:41:28.454Z,73.22998
2019-03-28T01:41:41.133Z,73.4375
2019-03-28T01:41:52.591Z,73.638916
2019-03-28T01:42:06.149Z,73.535156
2019-03-28T01:42:17.783Z,73.535156
2019-03-28T01:42:29.842Z,73.535156
2019-03-28T01:42:42.776Z,73.4375
2019-03-28T01:42:54.848Z,73.33374
2019-03-28T01:43:08.883Z,73.638916
2019-03-28T01:43:20.953Z,73.846436
2019-03-28T01:43:33.036Z,73.742676
2019-03-28T01:43:45.104Z,73.535156
2019-03-28T01:43:57.161Z,73.33374
2019-03-28T01:44:09.257Z,73.638916
2019-03-28T01:44:23.284Z,73.742676
2019-03-28T01:44:35.335Z,73.742676
2019-03-28T01:44:47.433Z,73.638916
2019-03-28T01:44:59.507Z,73.638916
2019-03-28T01:45:12.579Z,73.638916
2019-03-28T01:45:25.646Z,73.638916
2019-03-28T01:45:37.696Z,73.33374
2019-03-28T01:45:50.778Z,73.33374
2019-03-28T01:46:02.886Z,73.33374
2019-03-28T01:46:14.973Z,73.33374
2019-03-28T01:46:27.049Z,73.4375
2019-03-28T01:46:40.121Z,73.33374
2019-03-28T01:46:53.218Z,73.4375
2019-03-28T01:47:06.270Z,73.4375
2019-03-28T01:47:18.367Z,73.638916
2019-03-28T01:47:30.410Z,73.742676
2019-03-28T01:47:43.483Z,73.742676
2019-03-28T01:47:55.575Z,73.742676
2019-03-28T01:48:08.656Z,73.638916
2019-03-28T01:48:21.825Z,73.846436
2019-03-28T01:48:33.896Z,73.638916
2019-03-28T01:48:45.977Z,73.535156
2019-03-28T01:48:59.076Z,73.638916
2019-03-28T01:49:12.207Z,73.742676
2019-03-28T01:49:24.433Z,73.638916
2019-03-28T01:49:36.416Z,73.638916
2019-03-28T01:49:48.473Z,73.846436
2019-03-28T01:50:00.542Z,74.047852
2019-03-28T01:50:12.642Z,74.255371
2019-03-28T01:50:24.716Z,74.359131
2019-03-28T01:50:36.750Z,74.359131
2019-03-28T01:50:48.819Z,74.359131
2019-03-28T01:51:00.893Z,74.359131
2019-03-28T01:51:12.950Z,74.359131
2019-03-28T01:51:26.024Z,74.359131
2019-03-28T01:51:39.103Z,74.56665
2019-03-28T01:51:51.171Z,74.664307
2019-03-28T01:52:04.488Z,74.768066
2019-03-28T01:52:16.272Z,74.664307
2019-03-28T01:52:28.340Z,74.56665
2019-03-28T01:52:41.423Z,74.56665
2019-03-28T01:52:53.470Z,74.462891
2019-03-28T01:53:05.537Z,74.255371
2019-03-28T01:53:17.605Z,74.151611
2019-03-28T01:53:29.661Z,74.151611
2019-03-28T01:53:42.802Z,74.255371
2019-03-28T01:53:54.902Z,74.359131
2019-03-28T01:54:06.994Z,74.462891
2019-03-28T01:54:20.036Z,74.359131
2019-03-28T01:54:32.144Z,74.047852
2019-03-28T01:54:45.193Z,73.950195
2019-03-28T01:54:57.257Z,73.846436
2019-03-28T01:55:09.349Z,74.151611
2019-03-28T01:55:21.402Z,74.359131
2019-03-28T01:55:33.500Z,74.255371
2019-03-28T01:55:46.046Z,74.255371
2019-03-28T01:55:57.706Z,74.359131
2019-03-28T01:56:09.778Z,74.359131
2019-03-28T01:56:24.809Z,74.462891
2019-03-28T01:56:36.308Z,74.359131
2019-03-28T01:56:48.984Z,74.359131
2019-03-28T01:57:10.618Z,74.255371
2019-03-28T01:57:21.049Z,74.047852
2019-03-28T01:57:33.132Z,73.950195
2019-03-28T01:57:45.234Z,74.047852
2019-03-28T01:57:57.304Z,73.846436
2019-03-28T01:58:10.360Z,73.846436
2019-03-28T01:58:22.425Z,74.047852
2019-03-28T01:58:34.774Z,74.151611
2019-03-28T01:58:46.833Z,74.255371
2019-03-28T01:58:58.875Z,74.255371
2019-03-28T01:59:11.945Z,74.151611
2019-03-28T01:59:24.001Z,74.047852
2019-03-28T01:59:36.046Z,74.255371
2019-03-28T01:59:49.110Z,74.462891
2019-03-28T02:00:02.187Z,74.359131
2019-03-28T02:00:14.249Z,74.255371
2019-03-28T02:00:27.302Z,74.151611
2019-03-28T02:00:39.356Z,73.950195
2019-03-28T02:00:51.448Z,73.846436
2019-03-28T02:01:04.575Z,73.742676
2019-03-28T02:01:18.568Z,73.535156
2019-03-28T02:01:30.639Z,73.4375
2019-03-28T02:01:42.738Z,73.4375
2019-03-28T02:01:55.766Z,73.742676
2019-03-28T02:02:07.839Z,74.047852
2019-03-28T02:02:20.876Z,74.151611
2019-03-28T02:02:32.922Z,74.255371
2019-03-28T02:02:45.318Z,74.359131
2019-03-28T02:02:57.059Z,74.359131
2019-03-28T02:03:10.126Z,74.462891
2019-03-28T02:03:22.193Z,74.359131
2019-03-28T02:03:34.262Z,74.462891
2019-03-28T02:03:46.345Z,74.56665
2019-03-28T02:03:58.436Z,74.56665
2019-03-28T02:04:10.528Z,74.359131
2019-03-28T02:04:22.598Z,74.151611
2019-03-28T02:04:34.637Z,74.151611
2019-03-28T02:04:46.709Z,74.359131
2019-03-28T02:04:58.778Z,74.359131
2019-03-28T02:05:10.985Z,74.255371
2019-03-28T02:05:23.083Z,74.255371
2019-03-28T02:05:35.207Z,74.151611
2019-03-28T02:05:47.269Z,74.255371
2019-03-28T02:05:59.357Z,74.359131
2019-03-28T02:06:11.421Z,74.359131
2019-03-28T02:06:23.501Z,74.255371
2019-03-28T02:06:35.566Z,74.359131
2019-03-28T02:06:47.627Z,74.462891
2019-03-28T02:07:00.698Z,74.56665
2019-03-28T02:07:12.768Z,74.462891
2019-03-28T02:07:25.198Z,74.56665
2019-03-28T02:07:36.888Z,74.56665
2019-03-28T02:07:48.981Z,74.462891
2019-03-28T02:08:02.792Z,74.462891
2019-03-28T02:08:14.129Z,74.462891
2019-03-28T02:08:29.162Z,74.56665
2019-03-28T02:08:41.374Z,74.871826
2019-03-28T02:08:54.306Z,75.177002
2019-03-28T02:09:06.382Z,75.177002
2019-03-28T02:09:18.431Z,75.280762
2019-03-28T02:09:30.535Z,75.079346
2019-03-28T02:09:42.640Z,74.871826
2019-03-28T02:09:54.690Z,74.871826
2019-03-28T02:10:06.761Z,74.871826
2019-03-28T02:10:19.843Z,74.664307
2019-03-28T02:10:31.926Z,74.56665
2019-03-28T02:10:45.015Z,74.768066
2019-03-28T02:10:57.115Z,74.975586
2019-03-28T02:11:10.175Z,74.871826
2019-03-28T02:11:22.256Z,74.56665
2019-03-28T02:11:34.326Z,74.359131
2019-03-28T02:11:46.426Z,74.255371
2019-03-28T02:11:59.545Z,74.151611
2019-03-28T02:12:11.627Z,74.151611
2019-03-28T02:12:23.707Z,74.151611
2019-03-28T02:12:35.788Z,74.151611
2019-03-28T02:12:47.848Z,74.255371
2019-03-28T02:12:59.900Z,74.255371
2019-03-28T02:13:11.985Z,74.047852
2019-03-28T02:13:24.038Z,73.950195
2019-03-28T02:13:36.097Z,73.846436
2019-03-28T02:13:48.186Z,73.846436
2019-03-28T02:14:00.280Z,73.950195
2019-03-28T02:14:13.339Z,74.151611
2019-03-28T02:14:25.417Z,74.462891
2019-03-28T02:14:38.295Z,74.462891
2019-03-28T02:14:49.570Z,74.462891
2019-03-28T02:15:01.677Z,74.462891
2019-03-28T02:15:13.771Z,74.359131
2019-03-28T02:15:25.807Z,74.462891
2019-03-28T02:15:37.905Z,74.56665
2019-03-28T02:15:49.969Z,74.664307
2019-03-28T02:16:02.049Z,74.768066
2019-03-28T02:16:14.134Z,74.768066
2019-03-28T02:16:26.293Z,74.768066
2019-03-28T02:16:38.408Z,74.975586
2019-03-28T02:16:50.443Z,74.871826
2019-03-28T02:17:02.506Z,74.768066
2019-03-28T02:17:15.613Z,74.664307
2019-03-28T02:17:28.668Z,74.56665
2019-03-28T02:17:40.777Z,74.359131
2019-03-28T02:17:53.858Z,74.359131
2019-03-28T02:18:05.961Z,74.255371
2019-03-28T02:18:18.015Z,74.255371
2019-03-28T02:18:30.070Z,74.151611
2019-03-28T02:18:42.191Z,74.255371
2019-03-28T02:18:54.331Z,74.56665
2019-03-28T02:19:06.405Z,74.768066
2019-03-28T02:19:19.594Z,74.768066
2019-03-28T02:19:31.554Z,74.664307
2019-03-28T02:19:44.665Z,74.56665
2019-03-28T02:19:56.648Z,74.56665
2019-03-28T02:20:08.755Z,74.56665
2019-03-28T02:20:21.821Z,74.664307
2019-03-28T02:20:33.920Z,74.664307
2019-03-28T02:20:45.999Z,74.664307
2019-03-28T02:20:58.088Z,74.462891
2019-03-28T02:21:11.161Z,74.56665
2019-03-28T02:21:23.219Z,74.975586
2019-03-28T02:21:35.323Z,74.975586